Time;durP1;ratioP1;P1;durP2;ratioP2;P2;SDS_P1;SDS_P2;PMS_P1;PMS_P2;Temp;Humidity;BMP_temperature;BMP_pressure;BME280_temperature;BME280_humidity;BME280_pressure;Samples;Min_cycle;Max_cycle;Signal;HPM_P1;HPM_P2
2022/11/09 00:02:05;;;;;;;4.75;2.28;;;;;;;;;;6171586;28;20050;-88
2022/11/09 00:05:07;;;;;;;4.55;2.63;;;;;;;;;;6192639;28;20054;-88
2022/11/09 00:08:10;;;;;;;5.07;3.47;;;;;;;;;;6198404;28;20054;-87
2022/11/09 00:11:12;;;;;;;4.25;2.47;;;;;;;;;;6169207;28;20051;-87
2022/11/09 00:14:15;;;;;;;3.70;2.80;;;;;;;;;;6162744;28;20046;-87
2022/11/09 00:17:17;;;;;;;4.03;2.20;;;;;;;;;;6184538;28;20649;-88
2022/11/09 00:20:19;;;;;;;4.68;2.40;;;;;;;;;;6180178;28;20051;-87
2022/11/09 00:23:23;;;;;;;5.47;2.30;;;;;;;;;;6200689;28;20046;-86
2022/11/09 00:26:31;;;;;;;4.57;2.67;;;;;;;;;;6171392;28;20050;-87
2022/11/09 00:29:33;;;;;;;4.10;2.67;;;;;;;;;;6196448;28;20053;-87
2022/11/09 00:32:35;;;;;;;4.10;3.08;;;;;;;;;;6187214;28;20172;-87
2022/11/09 00:35:38;;;;;;;6.60;3.30;;;;;;;;;;6202488;28;20423;-88
2022/11/09 00:38:41;;;;;;;7.88;4.43;;;;;;;;;;6168654;28;20046;-88
2022/11/09 00:41:42;;;;;;;6.28;4.18;;;;;;;;;;6177762;28;21421;-87
2022/11/09 00:44:44;;;;;;;5.88;3.58;;;;;;;;;;6183012;28;20069;-87
2022/11/09 00:47:45;;;;;;;4.35;2.88;;;;;;;;;;6191999;28;20047;-88
2022/11/09 00:50:49;;;;;;;4.78;2.92;;;;;;;;;;6184237;28;20500;-88
2022/11/09 00:53:53;;;;;;;4.03;2.70;;;;;;;;;;6184068;28;20507;-87
2022/11/09 00:56:56;;;;;;;4.13;2.80;;;;;;;;;;6164226;28;20050;-87
2022/11/09 00:59:57;;;;;;;3.75;3.00;;;;;;;;;;6184013;28;20393;-88
2022/11/09 01:02:59;;;;;;;8.35;3.85;;;;;;;;;;6195155;28;20047;-88
2022/11/09 01:06:01;;;;;;;8.00;3.70;;;;;;;;;;6184273;28;20057;-87
2022/11/09 01:09:03;;;;;;;8.30;3.60;;;;;;;;;;6181037;28;20062;-87
2022/11/09 01:12:05;;;;;;;6.53;4.07;;;;;;;;;;6179068;28;20054;-87
2022/11/09 01:15:07;;;;;;;5.32;3.60;;;;;;;;;;6183919;28;20048;-88
2022/11/09 01:18:09;;;;;;;6.88;3.63;;;;;;;;;;6180351;28;20116;-89
2022/11/09 01:21:13;;;;;;;6.45;3.42;;;;;;;;;;6214261;28;20043;-87
2022/11/09 01:24:15;;;;;;;5.47;3.53;;;;;;;;;;6178375;28;20137;-87
2022/11/09 01:27:16;;;;;;;6.85;3.83;;;;;;;;;;6200968;28;20576;-87
2022/11/09 01:30:18;;;;;;;7.95;3.35;;;;;;;;;;6181920;28;20076;-87
2022/11/09 01:33:20;;;;;;;5.50;3.70;;;;;;;;;;6182719;28;20046;-88
2022/11/09 01:36:23;;;;;;;4.70;3.43;;;;;;;;;;6164998;28;20592;-88
2022/11/09 01:39:24;;;;;;;5.35;3.15;;;;;;;;;;6183146;28;20042;-88
2022/11/09 01:42:28;;;;;;;6.03;3.55;;;;;;;;;;6177476;28;20043;-87
2022/11/09 01:45:30;;;;;;;5.50;4.45;;;;;;;;;;6174246;28;20416;-87
2022/11/09 01:48:44;;;;;;;4.07;3.30;;;;;;;;;;6177366;28;20034;-87
2022/11/09 01:51:52;;;;;;;5.97;3.80;;;;;;;;;;6208330;28;20424;-87
2022/11/09 01:55:01;;;;;;;4.45;3.53;;;;;;;;;;6180273;28;20039;-88
2022/11/09 01:58:09;;;;;;;4.93;3.53;;;;;;;;;;6188049;28;20053;-88
2022/11/09 02:01:13;;;;;;;9.93;4.07;;;;;;;;;;6175005;28;20058;-87
2022/11/09 02:04:26;;;;;;;6.10;3.58;;;;;;;;;;6180022;28;20050;-87
2022/11/09 02:07:28;;;;;;;5.63;3.35;;;;;;;;;;6190673;28;20388;-88
2022/11/09 02:11:08;;;;;;;5.38;3.42;;;;;;;;;;6181782;28;20054;-87
2022/11/09 02:14:11;;;;;;;6.30;3.60;;;;;;;;;;6181650;28;20053;-87
2022/11/09 02:17:13;;;;;;;4.50;3.60;;;;;;;;;;6176361;28;20136;-86
2022/11/09 02:20:16;;;;;;;5.43;3.70;;;;;;;;;;6191454;28;20081;-87
2022/11/09 02:23:18;;;;;;;6.93;4.30;;;;;;;;;;6184741;28;20050;-88
2022/11/09 02:26:43;;;;;;;6.75;4.18;;;;;;;;;;6199061;28;21082;-88
2022/11/09 02:29:47;;;;;;;7.55;4.10;;;;;;;;;;6162138;28;20163;-88
2022/11/09 02:32:49;;;;;;;6.03;3.90;;;;;;;;;;6181337;28;20107;-88
2022/11/09 02:35:51;;;;;;;4.60;3.42;;;;;;;;;;6184323;28;20157;-87
2022/11/09 02:38:54;;;;;;;6.68;3.70;;;;;;;;;;6180486;28;20049;-88
2022/11/09 02:42:10;;;;;;;8.43;3.95;;;;;;;;;;6194854;28;20713;-88
2022/11/09 02:45:15;;;;;;;7.32;4.13;;;;;;;;;;6193462;28;20133;-89
2022/11/09 02:48:17;;;;;;;5.75;4.82;;;;;;;;;;6180568;28;20070;-88
2022/11/09 02:51:18;;;;;;;6.45;4.68;;;;;;;;;;6176510;28;20412;-88
2022/11/09 02:54:20;;;;;;;7.47;4.30;;;;;;;;;;6184487;28;20535;-88
2022/11/09 02:57:22;;;;;;;6.03;4.40;;;;;;;;;;6186047;28;20515;-88
2022/11/09 03:00:25;;;;;;;6.30;4.30;;;;;;;;;;6164008;28;20516;-88
2022/11/09 03:03:27;;;;;;;7.05;4.30;;;;;;;;;;6192271;28;20477;-87
2022/11/09 03:06:35;;;;;;;9.75;4.68;;;;;;;;;;6185542;28;20051;-87
2022/11/09 03:09:45;;;;;;;5.32;4.00;;;;;;;;;;6167775;28;20745;-87
2022/11/09 03:12:47;;;;;;;5.47;3.72;;;;;;;;;;6168366;28;20046;-87
2022/11/09 03:15:49;;;;;;;5.03;3.85;;;;;;;;;;6182953;28;20046;-87
2022/11/09 03:18:51;;;;;;;4.80;3.70;;;;;;;;;;6179891;28;20436;-87
2022/11/09 03:21:53;;;;;;;5.13;3.90;;;;;;;;;;6179509;28;20050;-88
2022/11/09 03:24:57;;;;;;;4.72;3.55;;;;;;;;;;6184876;28;20042;-88
2022/11/09 03:28:00;;;;;;;6.40;4.18;;;;;;;;;;6185456;28;20180;-88
2022/11/09 03:31:02;;;;;;;6.18;4.10;;;;;;;;;;6184013;28;20058;-88
2022/11/09 03:34:04;;;;;;;7.20;4.68;;;;;;;;;;6167145;28;20053;-87
2022/11/09 03:37:09;;;;;;;5.20;3.83;;;;;;;;;;6196661;28;20038;-88
2022/11/09 03:40:11;;;;;;;5.05;3.63;;;;;;;;;;6167184;28;20393;-87
2022/11/09 03:43:13;;;;;;;6.88;3.92;;;;;;;;;;6164774;28;20049;-87
2022/11/09 03:46:15;;;;;;;5.55;3.85;;;;;;;;;;6202697;28;20163;-87
2022/11/09 03:49:17;;;;;;;4.63;4.03;;;;;;;;;;6185676;28;20050;-88
2022/11/09 03:52:18;;;;;;;7.53;4.43;;;;;;;;;;6184739;28;20047;-87
2022/11/09 03:55:20;;;;;;;5.70;3.58;;;;;;;;;;6187581;28;20609;-87
2022/11/09 03:58:22;;;;;;;6.32;3.72;;;;;;;;;;6181483;28;20050;-88
2022/11/09 04:01:23;;;;;;;4.38;3.38;;;;;;;;;;6180715;28;20057;-88
2022/11/09 04:04:25;;;;;;;5.72;3.60;;;;;;;;;;6186704;28;20050;-89
2022/11/09 04:07:26;;;;;;;4.28;3.80;;;;;;;;;;6181782;28;20050;-87
2022/11/09 04:10:28;;;;;;;4.88;3.78;;;;;;;;;;6171089;28;20042;-88
2022/11/09 04:13:30;;;;;;;6.20;3.70;;;;;;;;;;6177071;28;20049;-88
2022/11/09 04:16:32;;;;;;;7.30;3.88;;;;;;;;;;6191807;28;20061;-87
2022/11/09 04:19:33;;;;;;;4.97;3.65;;;;;;;;;;6189028;28;20041;-87
2022/11/09 04:22:35;;;;;;;4.40;3.45;;;;;;;;;;6181303;28;20054;-86
2022/11/09 04:25:39;;;;;;;5.85;3.80;;;;;;;;;;6182978;28;20046;-88
2022/11/09 04:28:41;;;;;;;5.70;3.40;;;;;;;;;;6181181;28;20042;-87
2022/11/09 04:31:43;;;;;;;5.30;3.65;;;;;;;;;;6176751;28;20042;-88
2022/11/09 04:34:44;;;;;;;6.80;3.70;;;;;;;;;;6179317;28;20435;-88
2022/11/09 04:38:01;;;;;;;5.55;3.92;;;;;;;;;;6162138;28;20035;-88
2022/11/09 04:41:03;;;;;;;5.88;4.30;;;;;;;;;;6162715;28;20054;-87
2022/11/09 04:44:05;;;;;;;7.00;5.38;;;;;;;;;;6196087;28;20134;-86
2022/11/09 04:47:06;;;;;;;5.20;4.38;;;;;;;;;;6181405;28;20038;-87
2022/11/09 04:50:08;;;;;;;7.63;4.90;;;;;;;;;;6191341;28;20579;-87
2022/11/09 04:53:12;;;;;;;6.78;4.13;;;;;;;;;;6168098;28;20697;-88
2022/11/09 04:56:14;;;;;;;10.43;5.88;;;;;;;;;;6182460;28;20525;-87
2022/11/09 04:59:15;;;;;;;9.77;6.25;;;;;;;;;;6183233;28;20042;-88
2022/11/09 05:02:17;;;;;;;5.47;3.92;;;;;;;;;;6179506;28;20034;-87
2022/11/09 05:05:18;;;;;;;5.63;4.18;;;;;;;;;;6185084;28;20534;-88
2022/11/09 05:08:20;;;;;;;5.45;3.50;;;;;;;;;;6198820;28;20496;-86
2022/11/09 05:11:22;;;;;;;8.25;6.15;;;;;;;;;;6188374;28;20050;-87
2022/11/09 05:14:24;;;;;;;9.05;5.80;;;;;;;;;;6175843;28;20043;-87
2022/11/09 05:17:26;;;;;;;8.38;4.97;;;;;;;;;;6197101;28;20046;-87
2022/11/09 05:20:28;;;;;;;7.65;5.88;;;;;;;;;;6182451;28;20053;-87
2022/11/09 05:26:50;;;;;;;6.45;4.50;;;;;;;;;;6180217;28;20049;-87
2022/11/09 05:29:51;;;;;;;5.78;3.78;;;;;;;;;;6181793;28;20051;-87
2022/11/09 05:32:53;;;;;;;5.95;4.03;;;;;;;;;;6174188;28;20084;-87
2022/11/09 05:35:55;;;;;;;4.13;3.45;;;;;;;;;;6180205;28;20161;-87
2022/11/09 05:38:57;;;;;;;4.45;3.38;;;;;;;;;;6163159;28;20042;-87
2022/11/09 05:41:59;;;;;;;4.88;3.47;;;;;;;;;;6181391;28;20054;-87
2022/11/09 05:45:00;;;;;;;4.43;3.40;;;;;;;;;;6171986;28;20065;-87
2022/11/09 05:48:22;;;;;;;5.88;3.42;;;;;;;;;;6170490;28;21031;-87
2022/11/09 05:51:24;;;;;;;3.85;3.17;;;;;;;;;;6194808;28;20043;-87
2022/11/09 05:54:25;;;;;;;4.25;3.20;;;;;;;;;;6177972;28;20448;-87
2022/11/09 05:57:28;;;;;;;4.32;3.03;;;;;;;;;;6180430;28;20058;-86
2022/11/09 06:00:30;;;;;;;4.13;3.08;;;;;;;;;;6185572;28;20386;-86
2022/11/09 06:03:31;;;;;;;3.10;2.80;;;;;;;;;;6182415;28;20057;-88
2022/11/09 06:06:33;;;;;;;3.33;2.80;;;;;;;;;;6177189;28;20061;-87
2022/11/09 06:09:35;;;;;;;3.75;2.67;;;;;;;;;;6180468;28;20046;-87
2022/11/09 06:12:37;;;;;;;4.25;2.72;;;;;;;;;;6175816;28;20051;-86
2022/11/09 06:15:38;;;;;;;4.32;3.38;;;;;;;;;;6183895;28;20522;-86
2022/11/09 06:18:40;;;;;;;3.30;2.80;;;;;;;;;;6177707;28;20042;-87
2022/11/09 06:21:42;;;;;;;3.70;2.78;;;;;;;;;;6185499;28;20054;-87
2022/11/09 06:24:43;;;;;;;2.97;2.67;;;;;;;;;;6174973;28;20420;-87
2022/11/09 06:27:45;;;;;;;4.00;2.63;;;;;;;;;;6178724;28;20054;-87
2022/11/09 06:30:47;;;;;;;3.20;2.90;;;;;;;;;;6175996;28;20047;-87
2022/11/09 06:33:48;;;;;;;3.40;2.67;;;;;;;;;;6181166;28;20049;-87
2022/11/09 06:36:50;;;;;;;4.22;2.67;;;;;;;;;;6184661;28;20496;-87
2022/11/09 06:39:52;;;;;;;6.05;3.20;;;;;;;;;;6162764;28;20053;-86
2022/11/09 06:43:00;;;;;;;3.28;2.38;;;;;;;;;;6186634;28;20038;-88
2022/11/09 06:46:03;;;;;;;6.10;2.85;;;;;;;;;;6178267;28;20057;-87
2022/11/09 06:49:05;;;;;;;10.20;4.88;;;;;;;;;;6194520;28;20175;-87
2022/11/09 06:52:07;;;;;;;2.40;2.20;;;;;;;;;;6195398;28;20050;-87
2022/11/09 06:55:08;;;;;;;2.28;2.00;;;;;;;;;;6178360;28;20054;-87
2022/11/09 06:58:14;;;;;;;3.42;3.00;;;;;;;;;;6179885;28;20057;-87
2022/11/09 07:01:18;;;;;;;3.17;2.50;;;;;;;;;;6260390;28;20622;-86
2022/11/09 07:04:19;;;;;;;5.18;3.17;;;;;;;;;;6192394;28;20137;-88
2022/11/09 07:07:21;;;;;;;4.57;2.13;;;;;;;;;;6176824;28;20050;-88
2022/11/09 07:10:28;;;;;;;3.60;2.90;;;;;;;;;;6181659;28;20042;-87
2022/11/09 07:13:30;;;;;;;4.45;2.25;;;;;;;;;;6166934;28;20069;-87
2022/11/09 07:16:32;;;;;;;5.15;4.05;;;;;;;;;;6164610;28;20050;-87
2022/11/09 07:19:34;;;;;;;2.92;2.30;;;;;;;;;;6175325;28;20057;-88
2022/11/09 07:22:38;;;;;;;3.45;2.50;;;;;;;;;;6192848;28;20508;-87
2022/11/09 07:25:40;;;;;;;4.05;2.40;;;;;;;;;;6181423;28;20133;-86
2022/11/09 07:28:42;;;;;;;3.35;2.63;;;;;;;;;;6181367;28;20045;-88
2022/11/09 07:31:43;;;;;;;3.05;2.05;;;;;;;;;;6176144;28;20065;-87
2022/11/09 07:34:46;;;;;;;3.97;2.28;;;;;;;;;;6179317;28;20051;-88
2022/11/09 07:37:48;;;;;;;2.47;2.25;;;;;;;;;;6178961;28;20148;-87
2022/11/09 07:40:49;;;;;;;2.80;2.30;;;;;;;;;;6170568;28;20654;-87
2022/11/09 07:43:51;;;;;;;2.65;2.15;;;;;;;;;;6256289;28;20062;-87
2022/11/09 07:46:52;;;;;;;3.22;2.47;;;;;;;;;;6169512;28;20057;-88
2022/11/09 07:49:54;;;;;;;3.53;2.35;;;;;;;;;;6180606;28;20058;-88
2022/11/09 07:52:57;;;;;;;4.20;3.05;;;;;;;;;;6178496;28;20050;-89
2022/11/09 07:56:01;;;;;;;3.33;2.60;;;;;;;;;;6187762;28;20436;-88
2022/11/09 07:59:03;;;;;;;6.88;3.30;;;;;;;;;;6180076;28;20085;-88
2022/11/09 08:02:05;;;;;;;5.30;2.95;;;;;;;;;;6157035;28;20051;-87
2022/11/09 08:05:07;;;;;;;3.17;2.45;;;;;;;;;;6168094;28;20071;-87
2022/11/09 08:08:10;;;;;;;5.15;3.00;;;;;;;;;;6182044;28;20046;-88
2022/11/09 08:11:12;;;;;;;4.38;2.42;;;;;;;;;;6182542;28;20046;-88
2022/11/09 08:14:13;;;;;;;3.60;2.70;;;;;;;;;;6166798;28;20046;-87
2022/11/09 08:17:15;;;;;;;2.58;2.20;;;;;;;;;;6185834;28;20061;-88
2022/11/09 08:20:18;;;;;;;2.97;2.17;;;;;;;;;;6191629;28;20061;-88
2022/11/09 08:23:20;;;;;;;2.80;2.50;;;;;;;;;;6177736;28;20065;-88
2022/11/09 08:26:22;;;;;;;4.00;2.13;;;;;;;;;;6162215;28;20042;-88
2022/11/09 08:29:24;;;;;;;2.10;1.88;;;;;;;;;;6178457;28;20049;-88
2022/11/09 08:32:25;;;;;;;3.38;2.10;;;;;;;;;;6206069;28;20080;-88
2022/11/09 08:35:27;;;;;;;3.60;2.30;;;;;;;;;;6183391;28;20054;-88
2022/11/09 08:38:32;;;;;;;3.33;2.73;;;;;;;;;;6052043;28;3907872;-88
2022/11/09 08:41:33;;;;;;;2.95;2.20;;;;;;;;;;6183515;28;20051;-88
2022/11/09 08:44:35;;;;;;;3.25;2.42;;;;;;;;;;6264952;28;20050;-87
2022/11/09 08:47:38;;;;;;;3.50;2.30;;;;;;;;;;6177425;28;20046;-88
2022/11/09 08:50:39;;;;;;;2.50;2.10;;;;;;;;;;6181273;28;20054;-88
2022/11/09 08:53:41;;;;;;;2.10;1.65;;;;;;;;;;6179321;28;20047;-87
2022/11/09 08:56:45;;;;;;;2.20;1.63;;;;;;;;;;6179881;28;20050;-88
2022/11/09 08:59:46;;;;;;;3.65;1.80;;;;;;;;;;6182874;28;20057;-88
2022/11/09 09:02:48;;;;;;;5.57;2.20;;;;;;;;;;6178800;28;20053;-88
2022/11/09 09:05:50;;;;;;;1.98;1.77;;;;;;;;;;6181987;28;20701;-87
2022/11/09 09:08:52;;;;;;;2.90;1.58;;;;;;;;;;6185375;28;20495;-87
2022/11/09 09:11:53;;;;;;;4.05;1.60;;;;;;;;;;6178659;28;20047;-88
2022/11/09 09:14:55;;;;;;;2.33;1.55;;;;;;;;;;6181715;28;20050;-88
2022/11/09 09:18:01;;;;;;;2.70;1.50;;;;;;;;;;6183521;28;20046;-88
2022/11/09 09:21:07;;;;;;;3.75;1.50;;;;;;;;;;6192678;28;20508;-89
2022/11/09 09:24:08;;;;;;;3.70;1.45;;;;;;;;;;6181001;28;20065;-88
2022/11/09 09:27:14;;;;;;;2.80;1.38;;;;;;;;;;6196304;28;20258;-88
2022/11/09 09:30:15;;;;;;;2.25;1.25;;;;;;;;;;6196022;28;20058;-88
2022/11/09 09:33:17;;;;;;;1.63;1.40;;;;;;;;;;6183525;28;20046;-88
2022/11/09 09:36:21;;;;;;;1.77;1.10;;;;;;;;;;6164043;28;20567;-88
2022/11/09 09:39:23;;;;;;;1.95;1.20;;;;;;;;;;6262876;28;20050;-88
2022/11/09 09:42:41;;;;;;;2.70;1.20;;;;;;;;;;6188241;28;20054;-88
2022/11/09 09:45:49;;;;;;;3.22;1.25;;;;;;;;;;6176200;28;20088;-87
2022/11/09 09:48:57;;;;;;;2.30;1.33;;;;;;;;;;6192887;28;20042;-88
2022/11/09 09:52:11;;;;;;;3.08;1.30;;;;;;;;;;6198023;28;20054;-90
2022/11/09 09:55:33;;;;;;;1.77;1.30;;;;;;;;;;6199255;28;20053;-88
2022/11/09 09:58:40;;;;;;;1.30;1.20;;;;;;;;;;6182028;28;20055;-89
2022/11/09 10:01:43;;;;;;;1.45;1.08;;;;;;;;;;6179718;28;20053;-90
2022/11/09 10:04:45;;;;;;;1.17;0.95;;;;;;;;;;6162145;28;20641;-89
2022/11/09 10:07:56;;;;;;;1.10;0.82;;;;;;;;;;6184750;28;22682;-89
2022/11/09 10:11:03;;;;;;;1.95;1.00;;;;;;;;;;6178389;28;20054;-88
2022/11/09 10:14:39;;;;;;;2.05;1.25;;;;;;;;;;6206464;28;20034;-88
2022/11/09 10:18:04;;;;;;;2.55;1.00;;;;;;;;;;6182725;28;20050;-88
2022/11/09 10:21:48;;;;;;;1.67;0.88;;;;;;;;;;6162199;28;20516;-87
2022/11/09 10:25:05;;;;;;;1.52;0.90;;;;;;;;;;6176479;28;20053;-88
2022/11/09 10:28:28;;;;;;;1.60;1.40;;;;;;;;;;6180943;28;20066;-88
2022/11/09 10:32:08;;;;;;;1.10;0.88;;;;;;;;;;6177166;28;20066;-87
2022/11/09 10:35:20;;;;;;;3.63;0.98;;;;;;;;;;6166370;28;20049;-87
2022/11/09 10:38:36;;;;;;;1.10;1.00;;;;;;;;;;6176041;28;20424;-88
2022/11/09 10:41:56;;;;;;;3.75;1.33;;;;;;;;;;6179876;28;20408;-87
2022/11/09 10:45:27;;;;;;;1.63;1.30;;;;;;;;;;6179847;28;20046;-87
2022/11/09 10:48:48;;;;;;;1.55;1.02;;;;;;;;;;6182064;28;20534;-87
2022/11/09 10:52:31;;;;;;;1.65;1.10;;;;;;;;;;6180526;28;20058;-88
2022/11/09 10:55:52;;;;;;;;;;;;;;;;;;6182742;28;20045;-88
2022/11/09 10:59:33;;;;;;;1.20;0.70;;;;;;;;;;6182229;28;19932;-89
2022/11/09 11:02:54;;;;;;;1.65;0.90;;;;;;;;;;6184788;28;20046;-88
2022/11/09 11:06:21;;;;;;;1.25;1.00;;;;;;;;;;6180646;28;20043;-88
2022/11/09 11:09:41;;;;;;;1.98;0.98;;;;;;;;;;6176797;28;20118;-87
2022/11/09 11:13:04;;;;;;;1.35;0.75;;;;;;;;;;6180077;28;20524;-87
2022/11/09 11:16:31;;;;;;;1.75;1.08;;;;;;;;;;6185148;28;20043;-88
2022/11/09 11:19:51;;;;;;;1.85;1.10;;;;;;;;;;6190091;28;20047;-89
2022/11/09 11:23:17;;;;;;;2.42;1.10;;;;;;;;;;6176566;28;20133;-89
2022/11/09 11:26:53;;;;;;;0.80;0.80;;;;;;;;;;6180963;28;20054;-88
2022/11/09 11:30:28;;;;;;;4.20;1.08;;;;;;;;;;6185576;28;20038;-88
2022/11/09 11:33:48;;;;;;;1.42;0.90;;;;;;;;;;6187214;28;20047;-88
2022/11/09 11:37:17;;;;;;;1.52;0.80;;;;;;;;;;6185149;28;20050;-88
2022/11/09 11:40:50;;;;;;;3.50;0.80;;;;;;;;;;6181310;28;20125;-89
2022/11/09 11:44:13;;;;;;;1.40;0.68;;;;;;;;;;6180797;28;20046;-88
2022/11/09 11:48:02;;;;;;;1.50;0.90;;;;;;;;;;6185283;28;20050;-89
2022/11/09 11:51:28;;;;;;;2.13;0.73;;;;;;;;;;6178526;28;20042;-87
2022/11/09 11:55:09;;;;;;;2.20;1.02;;;;;;;;;;6179618;28;20133;-87
2022/11/09 11:58:43;;;;;;;4.45;0.80;;;;;;;;;;6192222;28;20046;-87
2022/11/09 12:02:25;;;;;;;2.20;1.25;;;;;;;;;;6186679;28;20066;-88
2022/11/09 12:06:04;;;;;;;1.85;1.10;;;;;;;;;;6195956;28;20043;-87
2022/11/09 12:09:43;;;;;;;2.95;0.95;;;;;;;;;;6180025;28;20058;-88
2022/11/09 12:13:24;;;;;;;3.78;1.00;;;;;;;;;;6198457;28;20512;-86
2022/11/09 12:16:54;;;;;;;1.85;1.20;;;;;;;;;;6182262;28;20038;-88
2022/11/09 12:20:18;;;;;;;1.70;0.70;;;;;;;;;;6182642;28;20046;-87
2022/11/09 12:23:53;;;;;;;2.40;0.85;;;;;;;;;;6183369;28;20495;-87
2022/11/09 12:27:36;;;;;;;2.88;0.80;;;;;;;;;;6182905;28;20076;-87
2022/11/09 12:31:27;;;;;;;1.38;0.80;;;;;;;;;;6181339;28;20376;-87
2022/11/09 12:35:12;;;;;;;2.30;1.00;;;;;;;;;;6181999;28;20050;-87
2022/11/09 12:38:37;;;;;;;3.33;0.80;;;;;;;;;;6181262;28;20039;-87
2022/11/09 12:42:05;;;;;;;1.20;0.70;;;;;;;;;;6179080;28;20054;-87
2022/11/09 12:45:38;;;;;;;1.77;0.95;;;;;;;;;;6182201;28;20050;-88
2022/11/09 12:49:02;;;;;;;1.70;0.90;;;;;;;;;;6183802;28;20508;-88
2022/11/09 12:52:27;;;;;;;2.00;0.73;;;;;;;;;;6180163;28;20082;-88
2022/11/09 12:55:56;;;;;;;4.45;0.90;;;;;;;;;;6180192;28;20043;-87
2022/11/09 12:59:21;;;;;;;0.93;0.70;;;;;;;;;;6187338;28;20512;-88
2022/11/09 13:02:53;;;;;;;2.92;0.85;;;;;;;;;;6182144;28;20512;-88
2022/11/09 13:06:18;;;;;;;2.83;0.73;;;;;;;;;;6179294;28;20101;-88
2022/11/09 13:09:40;;;;;;;2.67;1.00;;;;;;;;;;6179343;28;20512;-87
2022/11/09 13:13:10;;;;;;;2.80;1.00;;;;;;;;;;6180293;28;20054;-89
2022/11/09 13:16:34;;;;;;;2.80;1.20;;;;;;;;;;6179157;28;20042;-88
2022/11/09 13:19:55;;;;;;;1.40;0.63;;;;;;;;;;6177848;28;20048;-87
2022/11/09 13:23:45;;;;;;;1.92;0.68;;;;;;;;;;6191181;28;20050;-88
2022/11/09 13:27:46;;;;;;;3.13;0.90;;;;;;;;;;6181114;28;20050;-88
2022/11/09 13:31:08;;;;;;;1.52;0.90;;;;;;;;;;6177048;28;20568;-87
2022/11/09 13:34:55;;;;;;;2.42;0.70;;;;;;;;;;6179015;28;20050;-88
2022/11/09 13:38:23;;;;;;;4.00;1.25;;;;;;;;;;6183637;28;20043;-88
2022/11/09 13:41:44;;;;;;;2.95;0.65;;;;;;;;;;6180106;28;20091;-88
2022/11/09 13:45:23;;;;;;;1.60;0.50;;;;;;;;;;6180036;28;20054;-88
2022/11/09 13:48:45;;;;;;;0.80;0.77;;;;;;;;;;6194412;28;20042;-88
2022/11/09 13:52:44;;;;;;;3.20;0.90;;;;;;;;;;6178650;28;20486;-87
2022/11/09 13:56:28;;;;;;;4.78;0.68;;;;;;;;;;6196368;28;20424;-89
2022/11/09 13:59:49;;;;;;;0.90;0.60;;;;;;;;;;6188683;28;20042;-87
2022/11/09 14:03:21;;;;;;;2.50;0.63;;;;;;;;;;6182900;28;20068;-88
2022/11/09 14:06:42;;;;;;;2.13;0.68;;;;;;;;;;6177675;28;20137;-88
2022/11/09 14:10:25;;;;;;;3.53;0.70;;;;;;;;;;6179517;28;20062;-88
2022/11/09 14:13:55;;;;;;;1.20;0.60;;;;;;;;;;6179077;28;20043;-88
2022/11/09 14:17:54;;;;;;;1.67;0.80;;;;;;;;;;6178772;28;20571;-88
2022/11/09 14:21:43;;;;;;;4.55;0.80;;;;;;;;;;6176290;28;20042;-88
2022/11/09 14:25:17;;;;;;;2.50;0.77;;;;;;;;;;6181989;28;20106;-88
2022/11/09 14:28:37;;;;;;;1.15;0.70;;;;;;;;;;6179722;28;20042;-87
2022/11/09 14:32:00;;;;;;;2.55;0.75;;;;;;;;;;6176538;28;20050;-88
2022/11/09 14:35:35;;;;;;;3.20;0.80;;;;;;;;;;6178911;28;20046;-89
2022/11/09 14:38:57;;;;;;;3.38;0.90;;;;;;;;;;6182590;28;20058;-88
2022/11/09 14:42:21;;;;;;;2.10;0.82;;;;;;;;;;6179281;28;20058;-88
2022/11/09 14:45:54;;;;;;;2.03;0.65;;;;;;;;;;6180105;28;20042;-87
2022/11/09 14:49:14;;;;;;;2.28;0.75;;;;;;;;;;6188755;28;20463;-88
2022/11/09 14:52:35;;;;;;;3.67;1.48;;;;;;;;;;6181530;28;20046;-88
2022/11/09 14:55:59;;;;;;;3.38;0.80;;;;;;;;;;6191803;28;20054;-88
2022/11/09 14:59:30;;;;;;;2.38;0.90;;;;;;;;;;6175436;28;20054;-88
2022/11/09 15:02:50;;;;;;;6.10;1.10;;;;;;;;;;6179344;28;21997;-88
2022/11/09 15:06:13;;;;;;;1.77;0.90;;;;;;;;;;6150114;28;20165;-88
2022/11/09 15:09:42;;;;;;;2.33;0.90;;;;;;;;;;6186865;28;20047;-87
2022/11/09 15:13:02;;;;;;;4.53;1.00;;;;;;;;;;6178473;28;20050;-88
2022/11/09 15:16:30;;;;;;;4.38;0.90;;;;;;;;;;6175252;28;20046;-88
2022/11/09 15:20:03;;;;;;;2.13;1.23;;;;;;;;;;6176559;28;20157;-88
2022/11/09 15:23:37;;;;;;;1.60;0.80;;;;;;;;;;6176087;28;20070;-88
2022/11/09 15:26:57;;;;;;;;;;;;;;;;;;6176565;28;20046;-88
2022/11/09 15:30:40;;;;;;;1.38;0.80;;;;;;;;;;6178994;28;19922;-87
2022/11/09 15:34:22;;;;;;;3.17;1.48;;;;;;;;;;6178374;28;20055;-88
2022/11/09 15:37:43;;;;;;;4.63;1.50;;;;;;;;;;6178598;28;20046;-88
2022/11/09 15:41:16;;;;;;;4.13;1.70;;;;;;;;;;6180280;28;20056;-87
2022/11/09 15:44:36;;;;;;;6.23;2.03;;;;;;;;;;6174146;28;20034;-88
2022/11/09 15:47:56;;;;;;;5.78;1.75;;;;;;;;;;6179980;28;20042;-88
2022/11/09 15:51:17;;;;;;;5.60;1.00;;;;;;;;;;6176738;28;20791;-88
2022/11/09 15:54:40;;;;;;;2.03;0.95;;;;;;;;;;6183829;28;20521;-87
2022/11/09 15:58:06;;;;;;;3.05;1.23;;;;;;;;;;6176147;28;20051;-87
2022/11/09 16:01:27;;;;;;;3.75;1.20;;;;;;;;;;6178179;28;20485;-87
2022/11/09 16:04:47;;;;;;;3.45;1.25;;;;;;;;;;6177023;28;20066;-88
2022/11/09 16:08:08;;;;;;;3.72;1.35;;;;;;;;;;6177319;28;20050;-88
2022/11/09 16:11:28;;;;;;;3.13;0.93;;;;;;;;;;6178213;28;20055;-87
2022/11/09 16:14:49;;;;;;;2.10;1.20;;;;;;;;;;6180786;28;20068;-87
2022/11/09 16:18:09;;;;;;;4.93;1.80;;;;;;;;;;6196184;28;20081;-87
2022/11/09 16:21:29;;;;;;;4.25;1.98;;;;;;;;;;6192945;28;20050;-87
2022/11/09 16:24:50;;;;;;;4.22;1.20;;;;;;;;;;6181381;28;20639;-88
2022/11/09 16:28:10;;;;;;;3.65;1.13;;;;;;;;;;6180955;28;20046;-87
2022/11/09 16:31:30;;;;;;;3.92;1.10;;;;;;;;;;6178232;28;20062;-87
2022/11/09 16:35:11;;;;;;;3.55;1.52;;;;;;;;;;6181801;28;20051;-87
2022/11/09 16:38:51;;;;;;;5.40;2.47;;;;;;;;;;6191445;28;20046;-87
2022/11/09 16:42:13;;;;;;;4.03;2.45;;;;;;;;;;6183117;28;20058;-88
2022/11/09 16:45:34;;;;;;;5.65;2.00;;;;;;;;;;6181167;28;20491;-88
2022/11/09 16:48:55;;;;;;;3.83;1.63;;;;;;;;;;6180565;28;20516;-87
2022/11/09 16:52:15;;;;;;;3.28;1.50;;;;;;;;;;6183980;28;20046;-87
2022/11/09 16:55:35;;;;;;;3.25;1.30;;;;;;;;;;6190841;28;20047;-87
2022/11/09 16:58:56;;;;;;;7.55;1.77;;;;;;;;;;6177457;28;20046;-87
2022/11/09 17:02:16;;;;;;;2.80;1.65;;;;;;;;;;6191893;28;20129;-87
2022/11/09 17:05:36;;;;;;;5.63;1.73;;;;;;;;;;6180787;28;20074;-88
2022/11/09 17:08:57;;;;;;;4.30;1.67;;;;;;;;;;6181464;28;20050;-87
2022/11/09 17:12:17;;;;;;;5.35;2.35;;;;;;;;;;6173775;28;20042;-88
2022/11/09 17:15:46;;;;;;;12.48;6.68;;;;;;;;;;6180583;28;20412;-88
2022/11/09 17:19:06;;;;;;;4.78;2.30;;;;;;;;;;6182961;28;20050;-88
2022/11/09 17:22:26;;;;;;;6.80;2.30;;;;;;;;;;6180222;28;20055;-89
2022/11/09 17:25:57;;;;;;;6.05;1.95;;;;;;;;;;6180992;28;20070;-88
2022/11/09 17:29:20;;;;;;;4.30;2.00;;;;;;;;;;6189708;28;20416;-89
2022/11/09 17:32:40;;;;;;;20.75;7.45;;;;;;;;;;6192824;28;20047;-88
2022/11/09 17:36:05;;;;;;;8.60;3.22;;;;;;;;;;6180929;28;20050;-88
2022/11/09 17:39:25;;;;;;;10.80;4.13;;;;;;;;;;6178167;28;20055;-88
2022/11/09 17:42:46;;;;;;;8.32;3.17;;;;;;;;;;6177919;28;20423;-89
2022/11/09 17:46:09;;;;;;;7.38;2.67;;;;;;;;;;6182191;28;20050;-89
2022/11/09 17:49:30;;;;;;;6.60;2.60;;;;;;;;;;6180017;28;20046;-89
2022/11/09 17:52:50;;;;;;;5.55;2.30;;;;;;;;;;6183954;28;20125;-90
2022/11/09 17:56:10;;;;;;;4.55;2.83;;;;;;;;;;6179429;28;20050;-89
2022/11/09 17:59:30;;;;;;;6.18;2.13;;;;;;;;;;6196990;28;20042;-88
2022/11/09 18:02:54;;;;;;;5.13;2.55;;;;;;;;;;6185045;28;20051;-89
2022/11/09 18:06:18;;;;;;;;;;;;;;;;;;6182771;28;21655;-88
2022/11/09 18:09:38;;;;;;;4.78;2.30;;;;;;;;;;6178381;28;19922;-88
2022/11/09 18:13:02;;;;;;;7.38;2.65;;;;;;;;;;6183696;28;20492;-89
2022/11/09 18:16:23;;;;;;;4.18;2.33;;;;;;;;;;6183899;28;20077;-87
2022/11/09 18:19:43;;;;;;;5.25;2.40;;;;;;;;;;6190030;28;20524;-88
2022/11/09 18:23:04;;;;;;;4.10;2.60;;;;;;;;;;6195533;28;20066;-88
2022/11/09 18:26:24;;;;;;;6.25;2.90;;;;;;;;;;6179377;28;20047;-90
2022/11/09 18:29:44;;;;;;;8.30;3.42;;;;;;;;;;6174754;28;20423;-88
2022/11/09 18:33:04;;;;;;;6.43;3.33;;;;;;;;;;6180630;28;20047;-88
2022/11/09 18:36:26;;;;;;;8.63;3.60;;;;;;;;;;6193542;28;20058;-88
2022/11/09 18:39:47;;;;;;;20.15;12.18;;;;;;;;;;6173993;28;20054;-88
2022/11/09 18:43:07;;;;;;;19.00;11.05;;;;;;;;;;6182379;28;20674;-88
2022/11/09 18:46:29;;;;;;;13.55;6.55;;;;;;;;;;6180000;28;20532;-89
2022/11/09 18:49:51;;;;;;;18.60;7.50;;;;;;;;;;6178118;28;20041;-88
2022/11/09 18:53:11;;;;;;;6.18;3.72;;;;;;;;;;6177919;28;20050;-87
2022/11/09 18:56:31;;;;;;;10.43;6.10;;;;;;;;;;6199038;28;20462;-88
2022/11/09 18:59:52;;;;;;;5.22;2.92;;;;;;;;;;6170821;28;20050;-88
2022/11/09 19:03:15;;;;;;;7.10;2.83;;;;;;;;;;6183028;28;20106;-88
2022/11/09 19:06:36;;;;;;;4.65;2.95;;;;;;;;;;6177522;28;20041;-89
2022/11/09 19:09:56;;;;;;;8.57;2.90;;;;;;;;;;6179723;28;20047;-88
2022/11/09 19:13:17;;;;;;;13.60;7.45;;;;;;;;;;6170957;28;20488;-88
2022/11/09 19:16:37;;;;;;;6.45;2.58;;;;;;;;;;6169562;28;20043;-88
2022/11/09 19:19:58;;;;;;;6.25;3.10;;;;;;;;;;6176681;28;20141;-88
2022/11/09 19:23:18;;;;;;;6.38;2.28;;;;;;;;;;6177851;28;20062;-88
2022/11/09 19:26:39;;;;;;;5.82;2.25;;;;;;;;;;6176902;28;20063;-88